Terminal Aerodrome Forecast
Issued by NWS

Home | Current Version | Previous Version | Text Only | Print | Product List | Glossary On
Versions: 1 2 3 4 5 6 7 8 9 10 11 12 13 14 15 16 17 18
000
FTUS44 KOUN 072320
TAFHBR
TAF
KHBR 072320Z 0800/0824 02015G22KT P6SM OVC040
     FM080400 01015KT P6SM OVC020
     FM081400 36015KT P6SM SCT020 BKN250=

USA.gov is the U.S. government's official web portal to all federal, state and local government web resources and services.